»·PEaware :: N112LW KFOT-O69

N112LW :: KFOT-O69

FLIGHT INFORMATION

Flight Status: Arrived
Operator: Privately registered:
United States
More flights under this callsign
Pilot: Lee W. (44)
Aircraft: PIPER PA-24 COMMANCHE
(PA24)
More flights by this aircraft type
Origin: KFOT Rohnerville
United States
Destination: O69 Petaluma Mun
United States
More flights between these airports :: More routes between these airports
Route: +PLYAT V607 ENI V27 STS
File this flight plan on PilotEdge
Remarks:
Altitude:
(Current/Filed)
11,000ft
Speed:
(Current/Filed)
150kts
Departed: 29-Apr-12 11:27 AM
Arrived: 29-Apr-12 12:33 PM
Distance/Time
Traveled:
155nm/1:06
Distance/Time
To Go:
Arrived

Flight Plot

Page will automatically refresh every two minutes.


Map Options




Map Legend


Flown Route
Filed Route
Departure Airport
Arrival Airport
Navaid (VOR, NDB)
Fix

Horizontal Profiles

Position Reports

Time Latitude Longitude Heading Altitude Ground
Speed
29-Apr-12 11:24 40.553821 -124.130933 136 394ft 13kts
29-Apr-12 11:25 40.551724 -124.127291 129 394ft 13kts
29-Apr-12 11:26 40.557947 -124.139899 306 480ft 113kts
29-Apr-12 11:27 40.556293 -124.176708 227 1525ft 138kts
29-Apr-12 11:28 40.527769 -124.170356 99 2691ft 145kts
29-Apr-12 11:29 40.516970 -124.119301 106 3877ft 146kts
29-Apr-12 11:30 40.502684 -124.070346 111 5046ft 144kts
29-Apr-12 11:31 40.486361 -124.023726 113 6235ft 140kts
29-Apr-12 11:32 40.468984 -123.979307 115 7445ft 134kts
29-Apr-12 11:33 40.451551 -123.937756 117 8646ft 126kts
29-Apr-12 11:34 40.434893 -123.900001 117 9809ft 115kts
29-Apr-12 11:35 40.420098 -123.865955 117 10804ft 111kts
29-Apr-12 11:36 40.400647 -123.822681 120 11011ft 166kts
29-Apr-12 11:37 40.374861 -123.767537 121 10997ft 180kts
29-Apr-12 11:38 40.348982 -123.713337 121 10998ft 174kts
29-Apr-12 11:39 40.311427 -123.681345 168 11115ft 161kts
29-Apr-12 11:40 40.268777 -123.666870 168 11194ft 165kts
29-Apr-12 11:41 40.224173 -123.651590 168 11193ft 168kts
29-Apr-12 11:42 40.178908 -123.636372 168 11193ft 168kts
29-Apr-12 11:43 40.133526 -123.621292 168 11193ft 169kts
29-Apr-12 11:44 40.087951 -123.606102 168 11193ft 169kts
29-Apr-12 11:45 40.042892 -123.591071 168 11190ft 169kts
29-Apr-12 11:46 39.998196 -123.576174 168 11181ft 169kts
29-Apr-12 11:47 39.952640 -123.561049 166 11142ft 169kts
29-Apr-12 11:48 39.907410 -123.545978 165 11104ft 167kts
29-Apr-12 11:49 39.863035 -123.531170 165 11072ft 164kts
29-Apr-12 11:50 39.819529 -123.516657 165 11053ft 161kts
29-Apr-12 11:51 39.776366 -123.502285 165 11053ft 159kts
29-Apr-12 11:52 39.733570 -123.488058 165 11053ft 158kts
29-Apr-12 11:53 39.690848 -123.473879 165 11053ft 158kts
29-Apr-12 11:54 39.648045 -123.459873 166 11053ft 158kts
29-Apr-12 11:55 39.605398 -123.446547 166 11053ft 158kts
29-Apr-12 11:56 39.562589 -123.433154 166 11053ft 158kts
29-Apr-12 11:57 39.519733 -123.419741 166 11053ft 158kts
29-Apr-12 11:58 39.476908 -123.406340 166 11053ft 158kts
29-Apr-12 11:59 39.434702 -123.393140 166 11054ft 158kts
29-Apr-12 12:01 39.350183 -123.366739 166 11053ft 158kts
29-Apr-12 12:02 39.307218 -123.353338 166 11053ft 158kts
29-Apr-12 12:03 39.264482 -123.340023 166 11053ft 158kts
29-Apr-12 12:04 39.221543 -123.326661 166 11053ft 158kts
29-Apr-12 12:05 39.178673 -123.313336 166 11053ft 158kts
29-Apr-12 12:06 39.135641 -123.299976 166 11053ft 158kts
29-Apr-12 12:07 39.093335 -123.286859 166 11053ft 158kts
29-Apr-12 12:08 39.050911 -123.273405 156 11047ft 159kts
29-Apr-12 12:09 39.013876 -123.242964 146 11053ft 158kts
29-Apr-12 12:10 38.976402 -123.211990 147 10783ft 173kts
29-Apr-12 12:11 38.933383 -123.176590 147 9810ft 190kts
29-Apr-12 12:12 38.888740 -123.139892 146 8809ft 186kts
29-Apr-12 12:13 38.847464 -123.105486 146 7804ft 174kts
29-Apr-12 12:14 38.813817 -123.077468 146 6971ft 177kts
29-Apr-12 12:15 38.771016 -123.041917 146 6085ft 183kts
29-Apr-12 12:16 38.730930 -123.008634 146 6004ft 164kts
29-Apr-12 12:17 38.693453 -122.977226 144 6003ft 160kts
29-Apr-12 12:18 38.656988 -122.944700 144 6003ft 159kts
29-Apr-12 12:19 38.620563 -122.912235 144 6003ft 159kts
29-Apr-12 12:20 38.578926 -122.874328 144 6003ft 159kts
29-Apr-12 12:21 38.549686 -122.847584 144 6003ft 159kts
29-Apr-12 12:22 38.513486 -122.814805 144 6003ft 160kts
29-Apr-12 12:23 38.469147 -122.794371 165 5274ft 183kts
29-Apr-12 12:24 38.421352 -122.778347 165 4531ft 181kts
29-Apr-12 12:25 38.373990 -122.762471 165 3813ft 179kts
29-Apr-12 12:26 38.327218 -122.744592 137 3069ft 165kts
29-Apr-12 12:27 38.308106 -122.710372 122 3012ft 89kts
29-Apr-12 12:28 38.297519 -122.681842 106 2349ft 87kts
29-Apr-12 12:29 38.284874 -122.655900 119 1519ft 85kts
29-Apr-12 12:30 38.271968 -122.630533 123 613ft 81kts
29-Apr-12 12:31 38.259587 -122.608484 123 89ft 47kts
29-Apr-12 12:32 38.258951 -122.609645 213 89ft 0kts

Navigation Log

Ident Type
Flight plan parsing failed, navigation log unavailable